sensor_id;sensor_type;location;lat;lon;timestamp;pressure;altitude;pressure_sealevel;temperature;humidity
44140;BME280;29803;51.048;4.686;2023-04-02T00:01:37;101027.22;;;8.08;100.00
44140;BME280;29803;51.048;4.686;2023-04-02T00:04:12;101041.59;;;8.07;100.00
44140;BME280;29803;51.048;4.686;2023-04-02T00:06:45;101039.91;;;8.05;100.00
44140;BME280;29803;51.048;4.686;2023-04-02T00:09:22;101042.84;;;8.02;100.00
44140;BME280;29803;51.048;4.686;2023-04-02T00:11:53;101048.19;;;8.02;100.00
44140;BME280;29803;51.048;4.686;2023-04-02T00:14:30;101052.72;;;8.02;100.00
44140;BME280;29803;51.048;4.686;2023-04-02T00:17:04;101054.69;;;8.00;100.00
44140;BME280;29803;51.048;4.686;2023-04-02T00:19:56;101058.47;;;7.97;100.00
44140;BME280;29803;51.048;4.686;2023-04-02T00:22:29;101054.13;;;7.96;100.00
44140;BME280;29803;51.048;4.686;2023-04-02T00:25:09;101058.38;;;7.89;100.00
44140;BME280;29803;51.048;4.686;2023-04-02T00:27:42;101061.91;;;7.80;100.00
44140;BME280;29803;51.048;4.686;2023-04-02T00:30:13;101061.34;;;7.76;100.00
44140;BME280;29803;51.048;4.686;2023-04-02T00:32:44;101067.81;;;7.74;100.00
44140;BME280;29803;51.048;4.686;2023-04-02T00:35:21;101070.06;;;7.69;100.00
44140;BME280;29803;51.048;4.686;2023-04-02T00:37:54;101070.91;;;7.69;100.00
44140;BME280;29803;51.048;4.686;2023-04-02T00:40:28;101072.59;;;7.70;100.00
44140;BME280;29803;51.048;4.686;2023-04-02T00:42:59;101082.03;;;7.65;100.00
44140;BME280;29803;51.048;4.686;2023-04-02T00:45:36;101082.28;;;7.62;100.00
44140;BME280;29803;51.048;4.686;2023-04-02T00:51:00;101094.66;;;7.63;100.00
44140;BME280;29803;51.048;4.686;2023-04-02T00:53:38;101093.28;;;7.59;100.00
44140;BME280;29803;51.048;4.686;2023-04-02T00:56:15;101091.13;;;7.52;100.00
44140;BME280;29803;51.048;4.686;2023-04-02T00:58:51;101107.72;;;7.46;100.00
44140;BME280;29803;51.048;4.686;2023-04-02T01:01:26;101106.19;;;7.44;100.00
44140;BME280;29803;51.048;4.686;2023-04-02T01:03:59;101116.28;;;7.40;100.00
44140;BME280;29803;51.048;4.686;2023-04-02T01:06:34;101113.88;;;7.37;100.00
44140;BME280;29803;51.048;4.686;2023-04-02T01:09:39;101118.38;;;7.37;100.00
44140;BME280;29803;51.048;4.686;2023-04-02T01:15:28;101133.00;;;7.33;100.00
44140;BME280;29803;51.048;4.686;2023-04-02T01:18:25;101135.13;;;7.29;100.00
44140;BME280;29803;51.048;4.686;2023-04-02T01:24:12;101147.88;;;7.25;100.00
44140;BME280;29803;51.048;4.686;2023-04-02T01:26:51;101149.00;;;7.23;100.00
44140;BME280;29803;51.048;4.686;2023-04-02T01:29:35;101150.25;;;7.19;100.00
44140;BME280;29803;51.048;4.686;2023-04-02T01:32:13;101151.38;;;7.16;100.00
44140;BME280;29803;51.048;4.686;2023-04-02T01:34:48;101161.19;;;7.16;100.00
44140;BME280;29803;51.048;4.686;2023-04-02T01:45:30;101175.34;;;7.07;100.00
44140;BME280;29803;51.048;4.686;2023-04-02T01:48:04;101186.16;;;7.05;100.00
44140;BME280;29803;51.048;4.686;2023-04-02T01:50:37;101189.09;;;7.02;100.00
44140;BME280;29803;51.048;4.686;2023-04-02T01:53:14;101190.22;;;6.99;100.00
44140;BME280;29803;51.048;4.686;2023-04-02T01:55:48;101200.16;;;6.97;100.00
44140;BME280;29803;51.048;4.686;2023-04-02T01:58:23;101197.38;;;6.99;100.00
44140;BME280;29803;51.048;4.686;2023-04-02T02:03:45;65085.03;;;-146.26;100.00
44140;BME280;29803;51.048;4.686;2023-04-02T02:06:17;65085.03;;;-146.26;100.00
44140;BME280;29803;51.048;4.686;2023-04-02T02:09:02;65085.03;;;-146.26;100.00
44140;BME280;29803;51.048;4.686;2023-04-02T02:11:33;65085.03;;;-146.26;100.00
44140;BME280;29803;51.048;4.686;2023-04-02T02:14:13;65085.03;;;-146.26;100.00
44140;BME280;29803;51.048;4.686;2023-04-02T02:16:45;65085.03;;;-146.26;100.00
44140;BME280;29803;51.048;4.686;2023-04-02T02:19:35;65085.03;;;-146.26;100.00
44140;BME280;29803;51.048;4.686;2023-04-02T02:22:28;65085.03;;;-146.26;100.00
44140;BME280;29803;51.048;4.686;2023-04-02T02:25:03;65085.03;;;-146.26;100.00
44140;BME280;29803;51.048;4.686;2023-04-02T02:33:28;65085.03;;;-146.26;100.00
44140;BME280;29803;51.048;4.686;2023-04-02T02:36:04;65085.03;;;-146.26;100.00
44140;BME280;29803;51.048;4.686;2023-04-02T02:41:16;65085.03;;;-146.26;100.00
44140;BME280;29803;51.048;4.686;2023-04-02T02:46:42;65085.03;;;-146.26;100.00
44140;BME280;29803;51.048;4.686;2023-04-02T02:49:17;65085.03;;;-146.26;100.00
44140;BME280;29803;51.048;4.686;2023-04-02T02:54:43;65085.03;;;-146.26;100.00
44140;BME280;29803;51.048;4.686;2023-04-02T02:57:20;65085.03;;;-146.26;100.00
44140;BME280;29803;51.048;4.686;2023-04-02T02:59:54;65085.03;;;-146.26;100.00
44140;BME280;29803;51.048;4.686;2023-04-02T03:02:27;65085.03;;;-146.26;100.00
44140;BME280;29803;51.048;4.686;2023-04-02T03:04:58;65085.03;;;-146.26;100.00
44140;BME280;29803;51.048;4.686;2023-04-02T03:07:32;65085.03;;;-146.26;100.00
44140;BME280;29803;51.048;4.686;2023-04-02T03:10:12;65085.03;;;-146.26;100.00
44140;BME280;29803;51.048;4.686;2023-04-02T03:13:01;65085.03;;;-146.26;100.00
44140;BME280;29803;51.048;4.686;2023-04-02T03:18:30;65085.03;;;-146.26;100.00
44140;BME280;29803;51.048;4.686;2023-04-02T03:23:56;65085.03;;;-146.26;100.00
44140;BME280;29803;51.048;4.686;2023-04-02T03:29:22;65085.03;;;-146.26;100.00
44140;BME280;29803;51.048;4.686;2023-04-02T03:31:58;65085.03;;;-146.26;100.00
44140;BME280;29803;51.048;4.686;2023-04-02T03:34:30;65085.03;;;-146.26;100.00
44140;BME280;29803;51.048;4.686;2023-04-02T03:40:16;65085.03;;;-146.26;100.00
44140;BME280;29803;51.048;4.686;2023-04-02T03:42:51;65085.03;;;-146.26;100.00
44140;BME280;29803;51.048;4.686;2023-04-02T03:45:43;65085.03;;;-146.26;100.00
44140;BME280;29803;51.048;4.686;2023-04-02T03:48:23;65085.03;;;-146.26;100.00
44140;BME280;29803;51.048;4.686;2023-04-02T03:51:03;65085.03;;;-146.26;100.00
44140;BME280;29803;51.048;4.686;2023-04-02T03:53:36;65085.03;;;-146.26;100.00
44140;BME280;29803;51.048;4.686;2023-04-02T03:56:09;65085.03;;;-146.26;100.00
44140;BME280;29803;51.048;4.686;2023-04-02T03:58:45;65085.03;;;-146.26;100.00
44140;BME280;29803;51.048;4.686;2023-04-02T04:01:24;65085.03;;;-146.26;100.00
44140;BME280;29803;51.048;4.686;2023-04-02T04:04:03;65085.03;;;-146.26;100.00
44140;BME280;29803;51.048;4.686;2023-04-02T04:06:35;65085.03;;;-146.26;100.00
44140;BME280;29803;51.048;4.686;2023-04-02T04:09:28;65085.03;;;-146.26;100.00
44140;BME280;29803;51.048;4.686;2023-04-02T04:20:48;65085.03;;;-146.26;100.00
44140;BME280;29803;51.048;4.686;2023-04-02T04:23:26;65085.03;;;-146.26;100.00
44140;BME280;29803;51.048;4.686;2023-04-02T04:28:56;65085.03;;;-146.26;100.00
44140;BME280;29803;51.048;4.686;2023-04-02T04:31:34;65085.03;;;-146.26;100.00
44140;BME280;29803;51.048;4.686;2023-04-02T04:34:13;65085.03;;;-146.26;100.00
44140;BME280;29803;51.048;4.686;2023-04-02T04:36:50;65085.03;;;-146.26;100.00
44140;BME280;29803;51.048;4.686;2023-04-02T04:39:29;65085.03;;;-146.26;100.00
44140;BME280;29803;51.048;4.686;2023-04-02T04:42:04;65085.03;;;-146.26;100.00
44140;BME280;29803;51.048;4.686;2023-04-02T04:44:52;65085.03;;;-146.26;100.00
44140;BME280;29803;51.048;4.686;2023-04-02T04:50:55;65085.03;;;-146.26;100.00
44140;BME280;29803;51.048;4.686;2023-04-02T04:53:28;65085.03;;;-146.26;100.00
44140;BME280;29803;51.048;4.686;2023-04-02T04:56:02;65085.03;;;-146.26;100.00
44140;BME280;29803;51.048;4.686;2023-04-02T04:58:41;65085.03;;;-146.26;100.00
44140;BME280;29803;51.048;4.686;2023-04-02T05:01:59;65085.03;;;-146.26;100.00
44140;BME280;29803;51.048;4.686;2023-04-02T05:04:34;65085.03;;;-146.26;100.00
44140;BME280;29803;51.048;4.686;2023-04-02T05:13:02;65085.03;;;-146.26;100.00
44140;BME280;29803;51.048;4.686;2023-04-02T05:15:41;65085.03;;;-146.26;100.00
44140;BME280;29803;51.048;4.686;2023-04-02T05:18:36;65085.03;;;-146.26;100.00
44140;BME280;29803;51.048;4.686;2023-04-02T05:21:26;65085.03;;;-146.26;100.00
44140;BME280;29803;51.048;4.686;2023-04-02T05:26:50;65085.03;;;-146.26;100.00
44140;BME280;29803;51.048;4.686;2023-04-02T05:29:27;65085.03;;;-146.26;100.00
44140;BME280;29803;51.048;4.686;2023-04-02T05:32:05;65085.03;;;-146.26;100.00
44140;BME280;29803;51.048;4.686;2023-04-02T05:34:40;65085.03;;;-146.26;100.00
44140;BME280;29803;51.048;4.686;2023-04-02T05:37:15;65085.03;;;-146.26;100.00
44140;BME280;29803;51.048;4.686;2023-04-02T05:39:54;65085.03;;;-146.26;100.00
44140;BME280;29803;51.048;4.686;2023-04-02T05:42:29;65085.03;;;-146.26;100.00
44140;BME280;29803;51.048;4.686;2023-04-02T05:45:22;65085.03;;;-146.26;100.00
44140;BME280;29803;51.048;4.686;2023-04-02T05:47:56;65085.03;;;-146.26;100.00
44140;BME280;29803;51.048;4.686;2023-04-02T05:50:34;65085.03;;;-146.26;100.00
44140;BME280;29803;51.048;4.686;2023-04-02T05:53:13;65085.03;;;-146.26;100.00
44140;BME280;29803;51.048;4.686;2023-04-02T05:55:56;65085.03;;;-146.26;100.00
44140;BME280;29803;51.048;4.686;2023-04-02T06:01:54;65085.03;;;-146.26;100.00
44140;BME280;29803;51.048;4.686;2023-04-02T06:07:21;65085.03;;;-146.26;100.00
44140;BME280;29803;51.048;4.686;2023-04-02T06:10:12;65085.03;;;-146.26;100.00
44140;BME280;29803;51.048;4.686;2023-04-02T06:12:51;65085.03;;;-146.26;100.00
44140;BME280;29803;51.048;4.686;2023-04-02T06:15:23;65085.03;;;-146.26;100.00
44140;BME280;29803;51.048;4.686;2023-04-02T06:18:13;65085.03;;;-146.26;100.00
44140;BME280;29803;51.048;4.686;2023-04-02T06:20:45;65085.03;;;-146.26;100.00
44140;BME280;29803;51.048;4.686;2023-04-02T06:23:36;65085.03;;;-146.26;100.00
44140;BME280;29803;51.048;4.686;2023-04-02T06:29:09;65085.03;;;-146.26;100.00
44140;BME280;29803;51.048;4.686;2023-04-02T06:31:45;65085.03;;;-146.26;100.00
44140;BME280;29803;51.048;4.686;2023-04-02T06:34:20;65085.03;;;-146.26;100.00
44140;BME280;29803;51.048;4.686;2023-04-02T06:36:55;65085.03;;;-146.26;100.00
44140;BME280;29803;51.048;4.686;2023-04-02T06:39:27;65085.03;;;-146.26;100.00
44140;BME280;29803;51.048;4.686;2023-04-02T06:45:13;65085.03;;;-146.26;100.00
44140;BME280;29803;51.048;4.686;2023-04-02T06:47:49;65085.03;;;-146.26;100.00
44140;BME280;29803;51.048;4.686;2023-04-02T06:50:22;65085.03;;;-146.26;100.00
44140;BME280;29803;51.048;4.686;2023-04-02T06:52:59;65085.03;;;-146.26;100.00
44140;BME280;29803;51.048;4.686;2023-04-02T06:58:41;65085.03;;;-146.26;100.00
44140;BME280;29803;51.048;4.686;2023-04-02T07:01:17;65085.03;;;-146.26;100.00
44140;BME280;29803;51.048;4.686;2023-04-02T07:03:49;65085.03;;;-146.26;100.00
44140;BME280;29803;51.048;4.686;2023-04-02T07:06:20;65085.03;;;-146.26;100.00
44140;BME280;29803;51.048;4.686;2023-04-02T07:08:52;65085.03;;;-146.26;100.00
44140;BME280;29803;51.048;4.686;2023-04-02T07:11:23;65085.03;;;-146.26;100.00
44140;BME280;29803;51.048;4.686;2023-04-02T07:13:54;65085.03;;;-146.26;100.00
44140;BME280;29803;51.048;4.686;2023-04-02T07:16:26;65085.03;;;-146.26;100.00
44140;BME280;29803;51.048;4.686;2023-04-02T07:18:59;65085.03;;;-146.26;100.00
44140;BME280;29803;51.048;4.686;2023-04-02T07:21:30;65085.03;;;-146.26;100.00
44140;BME280;29803;51.048;4.686;2023-04-02T07:24:00;65085.03;;;-146.26;100.00
44140;BME280;29803;51.048;4.686;2023-04-02T07:26:31;65085.03;;;-146.26;100.00
44140;BME280;29803;51.048;4.686;2023-04-02T07:29:02;65085.03;;;-146.26;100.00
44140;BME280;29803;51.048;4.686;2023-04-02T07:31:33;65085.03;;;-146.26;100.00
44140;BME280;29803;51.048;4.686;2023-04-02T07:34:04;65085.03;;;-146.26;100.00
44140;BME280;29803;51.048;4.686;2023-04-02T07:36:34;65085.03;;;-146.26;100.00
44140;BME280;29803;51.048;4.686;2023-04-02T07:39:05;65085.03;;;-146.26;100.00
44140;BME280;29803;51.048;4.686;2023-04-02T07:41:56;65085.03;;;-146.26;100.00
44140;BME280;29803;51.048;4.686;2023-04-02T07:44:27;65085.03;;;-146.26;100.00
44140;BME280;29803;51.048;4.686;2023-04-02T07:46:58;65085.03;;;-146.26;100.00
44140;BME280;29803;51.048;4.686;2023-04-02T07:49:28;65085.03;;;-146.26;100.00
44140;BME280;29803;51.048;4.686;2023-04-02T07:51:59;65085.03;;;-146.26;100.00
44140;BME280;29803;51.048;4.686;2023-04-02T07:54:29;65085.03;;;-146.26;100.00
44140;BME280;29803;51.048;4.686;2023-04-02T07:57:00;65085.03;;;-146.26;100.00
44140;BME280;29803;51.048;4.686;2023-04-02T07:59:30;65085.03;;;-146.26;100.00
44140;BME280;29803;51.048;4.686;2023-04-02T08:02:01;65085.03;;;-146.26;100.00
44140;BME280;29803;51.048;4.686;2023-04-02T08:04:32;65085.03;;;-146.26;100.00
44140;BME280;29803;51.048;4.686;2023-04-02T08:07:02;65085.03;;;-146.26;100.00
44140;BME280;29803;51.048;4.686;2023-04-02T08:09:32;65085.03;;;-146.26;100.00
44140;BME280;29803;51.048;4.686;2023-04-02T08:12:03;65085.03;;;-146.26;100.00
44140;BME280;29803;51.048;4.686;2023-04-02T08:14:34;65085.03;;;-146.26;100.00
44140;BME280;29803;51.048;4.686;2023-04-02T08:17:04;65085.03;;;-146.26;100.00
44140;BME280;29803;51.048;4.686;2023-04-02T08:19:34;65085.03;;;-146.26;100.00
44140;BME280;29803;51.048;4.686;2023-04-02T08:22:05;65085.03;;;-146.26;100.00
44140;BME280;29803;51.048;4.686;2023-04-02T08:24:36;65085.03;;;-146.26;100.00
44140;BME280;29803;51.048;4.686;2023-04-02T08:27:06;65085.03;;;-146.26;100.00
44140;BME280;29803;51.048;4.686;2023-04-02T08:29:37;65085.03;;;-146.26;100.00
44140;BME280;29803;51.048;4.686;2023-04-02T08:32:09;65085.03;;;-146.26;100.00
44140;BME280;29803;51.048;4.686;2023-04-02T08:34:42;65085.03;;;-146.26;100.00
44140;BME280;29803;51.048;4.686;2023-04-02T08:37:12;65085.03;;;-146.26;100.00
44140;BME280;29803;51.048;4.686;2023-04-02T08:39:43;65085.03;;;-146.26;100.00
44140;BME280;29803;51.048;4.686;2023-04-02T08:48:04;65085.03;;;-146.26;100.00
44140;BME280;29803;51.048;4.686;2023-04-02T08:50:38;65085.03;;;-146.26;100.00
44140;BME280;29803;51.048;4.686;2023-04-02T08:53:14;65085.03;;;-146.26;100.00
44140;BME280;29803;51.048;4.686;2023-04-02T08:56:06;65085.03;;;-146.26;100.00
44140;BME280;29803;51.048;4.686;2023-04-02T09:01:43;65085.03;;;-146.26;100.00
44140;BME280;29803;51.048;4.686;2023-04-02T09:04:21;65085.03;;;-146.26;100.00
44140;BME280;29803;51.048;4.686;2023-04-02T09:06:54;65085.03;;;-146.26;100.00
44140;BME280;29803;51.048;4.686;2023-04-02T09:09:25;65085.03;;;-146.26;100.00
44140;BME280;29803;51.048;4.686;2023-04-02T09:11:59;65085.03;;;-146.26;100.00
44140;BME280;29803;51.048;4.686;2023-04-02T09:17:33;65085.03;;;-146.26;100.00
44140;BME280;29803;51.048;4.686;2023-04-02T09:20:17;65085.03;;;-146.26;100.00
44140;BME280;29803;51.048;4.686;2023-04-02T09:22:50;65085.03;;;-146.26;100.00
44140;BME280;29803;51.048;4.686;2023-04-02T09:25:23;65085.03;;;-146.26;100.00
44140;BME280;29803;51.048;4.686;2023-04-02T09:28:00;65085.03;;;-146.26;100.00
44140;BME280;29803;51.048;4.686;2023-04-02T09:33:03;65085.03;;;-146.26;100.00
44140;BME280;29803;51.048;4.686;2023-04-02T09:35:54;65085.03;;;-146.26;100.00
44140;BME280;29803;51.048;4.686;2023-04-02T09:38:26;65085.03;;;-146.26;100.00
44140;BME280;29803;51.048;4.686;2023-04-02T09:41:04;65085.03;;;-146.26;100.00
44140;BME280;29803;51.048;4.686;2023-04-02T09:43:36;65085.03;;;-146.26;100.00
44140;BME280;29803;51.048;4.686;2023-04-02T09:46:23;65085.03;;;-146.26;100.00
44140;BME280;29803;51.048;4.686;2023-04-02T09:48:57;65085.03;;;-146.26;100.00
44140;BME280;29803;51.048;4.686;2023-04-02T09:51:31;65085.03;;;-146.26;100.00
44140;BME280;29803;51.048;4.686;2023-04-02T09:56:35;65085.03;;;-146.26;100.00
44140;BME280;29803;51.048;4.686;2023-04-02T09:59:18;65085.03;;;-146.26;100.00
44140;BME280;29803;51.048;4.686;2023-04-02T10:04:43;65085.03;;;-146.26;100.00
44140;BME280;29803;51.048;4.686;2023-04-02T10:10:39;65085.03;;;-146.26;100.00
44140;BME280;29803;51.048;4.686;2023-04-02T10:18:40;65085.03;;;-146.26;100.00
44140;BME280;29803;51.048;4.686;2023-04-02T10:21:16;65085.03;;;-146.26;100.00
44140;BME280;29803;51.048;4.686;2023-04-02T10:23:47;65085.03;;;-146.26;100.00
44140;BME280;29803;51.048;4.686;2023-04-02T10:26:37;65085.03;;;-146.26;100.00
44140;BME280;29803;51.048;4.686;2023-04-02T10:32:19;65085.03;;;-146.26;100.00
44140;BME280;29803;51.048;4.686;2023-04-02T10:43:53;65085.03;;;-146.26;100.00
44140;BME280;29803;51.048;4.686;2023-04-02T10:52:48;65085.03;;;-146.26;100.00
44140;BME280;29803;51.048;4.686;2023-04-02T10:55:28;65085.03;;;-146.26;100.00
44140;BME280;29803;51.048;4.686;2023-04-02T10:58:05;65085.03;;;-146.26;100.00
44140;BME280;29803;51.048;4.686;2023-04-02T11:00:40;65085.03;;;-146.26;100.00
44140;BME280;29803;51.048;4.686;2023-04-02T11:03:21;65085.03;;;-146.26;100.00
44140;BME280;29803;51.048;4.686;2023-04-02T11:06:03;65085.03;;;-146.26;100.00
44140;BME280;29803;51.048;4.686;2023-04-02T11:11:25;65085.03;;;-146.26;100.00
44140;BME280;29803;51.048;4.686;2023-04-02T11:14:19;65085.03;;;-146.26;100.00
44140;BME280;29803;51.048;4.686;2023-04-02T11:16:53;65085.03;;;-146.26;100.00
44140;BME280;29803;51.048;4.686;2023-04-02T11:19:27;65085.03;;;-146.26;100.00
44140;BME280;29803;51.048;4.686;2023-04-02T11:22:01;65085.03;;;-146.26;100.00
44140;BME280;29803;51.048;4.686;2023-04-02T11:24:44;65085.03;;;-146.26;100.00
44140;BME280;29803;51.048;4.686;2023-04-02T11:27:34;65085.03;;;-146.26;100.00
44140;BME280;29803;51.048;4.686;2023-04-02T11:30:14;65085.03;;;-146.26;100.00
44140;BME280;29803;51.048;4.686;2023-04-02T11:32:48;65085.03;;;-146.26;100.00
44140;BME280;29803;51.048;4.686;2023-04-02T11:35:38;65085.03;;;-146.26;100.00
44140;BME280;29803;51.048;4.686;2023-04-02T11:48:49;65085.03;;;-146.26;100.00
44140;BME280;29803;51.048;4.686;2023-04-02T11:53:52;65085.03;;;-146.26;100.00
44140;BME280;29803;51.048;4.686;2023-04-02T11:56:45;65085.03;;;-146.26;100.00
44140;BME280;29803;51.048;4.686;2023-04-02T11:59:23;65085.03;;;-146.26;100.00
44140;BME280;29803;51.048;4.686;2023-04-02T12:02:08;65085.03;;;-146.26;100.00
44140;BME280;29803;51.048;4.686;2023-04-02T12:05:02;65085.03;;;-146.26;100.00
44140;BME280;29803;51.048;4.686;2023-04-02T12:07:44;65085.03;;;-146.26;100.00
44140;BME280;29803;51.048;4.686;2023-04-02T12:10:30;65085.03;;;-146.26;100.00
44140;BME280;29803;51.048;4.686;2023-04-02T12:13:01;65085.03;;;-146.26;100.00
44140;BME280;29803;51.048;4.686;2023-04-02T12:15:41;65085.03;;;-146.26;100.00
44140;BME280;29803;51.048;4.686;2023-04-02T12:18:31;65085.03;;;-146.26;100.00
44140;BME280;29803;51.048;4.686;2023-04-02T12:21:02;65085.03;;;-146.26;100.00
44140;BME280;29803;51.048;4.686;2023-04-02T12:23:35;65085.03;;;-146.26;100.00
44140;BME280;29803;51.048;4.686;2023-04-02T12:26:24;65085.03;;;-146.26;100.00
44140;BME280;29803;51.048;4.686;2023-04-02T12:29:24;65085.03;;;-146.26;100.00
44140;BME280;29803;51.048;4.686;2023-04-02T12:31:57;65085.03;;;-146.26;100.00
44140;BME280;29803;51.048;4.686;2023-04-02T12:34:28;65085.03;;;-146.26;100.00
44140;BME280;29803;51.048;4.686;2023-04-02T12:37:01;65085.03;;;-146.26;100.00
44140;BME280;29803;51.048;4.686;2023-04-02T12:39:33;65085.03;;;-146.26;100.00
44140;BME280;29803;51.048;4.686;2023-04-02T12:42:04;65085.03;;;-146.26;100.00
44140;BME280;29803;51.048;4.686;2023-04-02T12:44:34;65085.03;;;-146.26;100.00
44140;BME280;29803;51.048;4.686;2023-04-02T12:47:05;65085.03;;;-146.26;100.00
44140;BME280;29803;51.048;4.686;2023-04-02T12:49:38;65085.03;;;-146.26;100.00
44140;BME280;29803;51.048;4.686;2023-04-02T12:52:12;65085.03;;;-146.26;100.00
44140;BME280;29803;51.048;4.686;2023-04-02T12:57:34;65085.03;;;-146.26;100.00
44140;BME280;29803;51.048;4.686;2023-04-02T13:05:57;65085.03;;;-146.26;100.00
44140;BME280;29803;51.048;4.686;2023-04-02T13:08:40;65085.03;;;-146.26;100.00
44140;BME280;29803;51.048;4.686;2023-04-02T13:11:11;65085.03;;;-146.26;100.00
44140;BME280;29803;51.048;4.686;2023-04-02T13:13:43;65085.03;;;-146.26;100.00
44140;BME280;29803;51.048;4.686;2023-04-02T13:18:48;65085.03;;;-146.26;100.00
44140;BME280;29803;51.048;4.686;2023-04-02T13:23:49;65085.03;;;-146.26;100.00
44140;BME280;29803;51.048;4.686;2023-04-02T13:26:21;65085.03;;;-146.26;100.00
44140;BME280;29803;51.048;4.686;2023-04-02T13:31:40;65085.03;;;-146.26;100.00
44140;BME280;29803;51.048;4.686;2023-04-02T13:34:11;65085.03;;;-146.26;100.00
44140;BME280;29803;51.048;4.686;2023-04-02T13:36:41;65085.03;;;-146.26;100.00
44140;BME280;29803;51.048;4.686;2023-04-02T13:39:12;65085.03;;;-146.26;100.00
44140;BME280;29803;51.048;4.686;2023-04-02T13:41:44;65085.03;;;-146.26;100.00
44140;BME280;29803;51.048;4.686;2023-04-02T13:44:29;65085.03;;;-146.26;100.00
44140;BME280;29803;51.048;4.686;2023-04-02T13:47:01;65085.03;;;-146.26;100.00
44140;BME280;29803;51.048;4.686;2023-04-02T13:49:32;65085.03;;;-146.26;100.00
44140;BME280;29803;51.048;4.686;2023-04-02T13:52:03;65085.03;;;-146.26;100.00
44140;BME280;29803;51.048;4.686;2023-04-02T13:57:06;65085.03;;;-146.26;100.00
44140;BME280;29803;51.048;4.686;2023-04-02T13:59:37;65085.03;;;-146.26;100.00
44140;BME280;29803;51.048;4.686;2023-04-02T14:02:10;65085.03;;;-146.26;100.00
44140;BME280;29803;51.048;4.686;2023-04-02T14:04:47;65085.03;;;-146.26;100.00
44140;BME280;29803;51.048;4.686;2023-04-02T14:07:26;65085.03;;;-146.26;100.00
44140;BME280;29803;51.048;4.686;2023-04-02T14:13:57;65085.03;;;-146.26;100.00
44140;BME280;29803;51.048;4.686;2023-04-02T14:16:48;65085.03;;;-146.26;100.00
44140;BME280;29803;51.048;4.686;2023-04-02T14:34:25;65085.03;;;-146.26;100.00
44140;BME280;29803;51.048;4.686;2023-04-02T14:40:35;65085.03;;;-146.26;100.00
44140;BME280;29803;51.048;4.686;2023-04-02T14:43:20;65085.03;;;-146.26;100.00
44140;BME280;29803;51.048;4.686;2023-04-02T14:46:10;65085.03;;;-146.26;100.00
44140;BME280;29803;51.048;4.686;2023-04-02T14:48:52;65085.03;;;-146.26;100.00
44140;BME280;29803;51.048;4.686;2023-04-02T14:57:14;65085.03;;;-146.26;100.00
44140;BME280;29803;51.048;4.686;2023-04-02T15:03:03;65085.03;;;-146.26;100.00
44140;BME280;29803;51.048;4.686;2023-04-02T15:05:47;65085.03;;;-146.26;100.00
44140;BME280;29803;51.048;4.686;2023-04-02T15:08:23;65085.03;;;-146.26;100.00
44140;BME280;29803;51.048;4.686;2023-04-02T15:14:22;65085.03;;;-146.26;100.00
44140;BME280;29803;51.048;4.686;2023-04-02T15:16:54;65085.03;;;-146.26;100.00
44140;BME280;29803;51.048;4.686;2023-04-02T15:19:25;65085.03;;;-146.26;100.00
44140;BME280;29803;51.048;4.686;2023-04-02T15:28:18;65085.03;;;-146.26;100.00
44140;BME280;29803;51.048;4.686;2023-04-02T15:30:54;65085.03;;;-146.26;100.00
44140;BME280;29803;51.048;4.686;2023-04-02T15:33:36;65085.03;;;-146.26;100.00
44140;BME280;29803;51.048;4.686;2023-04-02T15:50:41;65085.03;;;-146.26;100.00
44140;BME280;29803;51.048;4.686;2023-04-02T15:53:35;65085.03;;;-146.26;100.00
44140;BME280;29803;51.048;4.686;2023-04-02T15:56:18;65085.03;;;-146.26;100.00
44140;BME280;29803;51.048;4.686;2023-04-02T16:01:53;65085.03;;;-146.26;100.00
44140;BME280;29803;51.048;4.686;2023-04-02T16:10:25;65085.03;;;-146.26;100.00
44140;BME280;29803;51.048;4.686;2023-04-02T16:12:57;65085.03;;;-146.26;100.00
44140;BME280;29803;51.048;4.686;2023-04-02T16:15:34;65085.03;;;-146.26;100.00
44140;BME280;29803;51.048;4.686;2023-04-02T16:18:29;65085.03;;;-146.26;100.00
44140;BME280;29803;51.048;4.686;2023-04-02T16:21:03;65085.03;;;-146.26;100.00
44140;BME280;29803;51.048;4.686;2023-04-02T16:23:35;65085.03;;;-146.26;100.00
44140;BME280;29803;51.048;4.686;2023-04-02T16:38:42;65085.03;;;-146.26;100.00
44140;BME280;29803;51.048;4.686;2023-04-02T16:47:37;65085.03;;;-146.26;100.00
44140;BME280;29803;51.048;4.686;2023-04-02T16:50:29;65085.03;;;-146.26;100.00
44140;BME280;29803;51.048;4.686;2023-04-02T17:06:43;65085.03;;;-146.26;100.00
44140;BME280;29803;51.048;4.686;2023-04-02T17:09:22;65085.03;;;-146.26;100.00
44140;BME280;29803;51.048;4.686;2023-04-02T17:18:12;65085.03;;;-146.26;100.00
44140;BME280;29803;51.048;4.686;2023-04-02T17:20:45;65085.03;;;-146.26;100.00
44140;BME280;29803;51.048;4.686;2023-04-02T17:23:18;65085.03;;;-146.26;100.00
44140;BME280;29803;51.048;4.686;2023-04-02T17:25:52;65085.03;;;-146.26;100.00
44140;BME280;29803;51.048;4.686;2023-04-02T17:28:26;65085.03;;;-146.26;100.00
44140;BME280;29803;51.048;4.686;2023-04-02T17:31:24;65085.03;;;-146.26;100.00
44140;BME280;29803;51.048;4.686;2023-04-02T17:33:56;65085.03;;;-146.26;100.00
44140;BME280;29803;51.048;4.686;2023-04-02T17:42:51;65085.03;;;-146.26;100.00
44140;BME280;29803;51.048;4.686;2023-04-02T17:45:37;65085.03;;;-146.26;100.00
44140;BME280;29803;51.048;4.686;2023-04-02T17:48:20;65085.03;;;-146.26;100.00
44140;BME280;29803;51.048;4.686;2023-04-02T17:59:49;65085.03;;;-146.26;100.00
44140;BME280;29803;51.048;4.686;2023-04-02T18:05:52;65085.03;;;-146.26;100.00
44140;BME280;29803;51.048;4.686;2023-04-02T18:11:24;65085.03;;;-146.26;100.00
44140;BME280;29803;51.048;4.686;2023-04-02T18:13:59;65085.03;;;-146.26;100.00